Terminal Aerodrome Forecast
Issued by NWS Charleston, WV

Current Version | Previous Version | Graphics & Text | Print | Product List | Glossary On
Versions: 1 2 3 4 5 6 7 8 9 10 11 12 13 14 15 16 17 18 19 20
000
FTUS41 KRLX 081124
TAFHTS
TAF
KHTS 081124Z 0812/0912 20004KT 6SM -SHRASN OVC070
     FM081400 22004KT 4SM -SHRA OVC026
     FM081700 23004KT 3SM -SHRA OVC019
     FM081900 23005KT 6SM BR OVC017
     FM090300 26007KT 2SM -SHSN OVC014
     FM090400 26007KT 2SM -SHSN OVC007=

USA.gov is the U.S. government's official web portal to all federal, state and local government web resources and services.